Home   Weather   Netherlands   Peize   Past weeks
Flag for Netherlands

Past Weather in Peize, Netherlands — Yesterday and Last 2 Weeks

Currently: 57 °F. Passing clouds. (Weather station: Groningen Eelde Airport, Netherlands). See more current weather

Past Weather in Peize — Graph

°F

Peize Temperature Yesterday

Maximum temperature yesterday: 70 °F (at 2:55 pm)
Minimum temperature yesterday: 55 °F (at 2:55 am)
Average temperature yesterday: 63 °F

High & Low Weather Summary for the Past Weeks

 TemperatureHumidityPressure
High77 °F (Jul 24, 1:55 pm)100% (Jul 21, 6:25 am)30.21 "Hg (Jul 21, 6:25 am)
Low46 °F (Aug 3, 3:55 am)53% (Jul 22, 1:25 pm)29.53 "Hg (Jul 31, 4:25 am)
Average63 °F81%29.86 "Hg
* Reported Jul 21 6:25 am — Aug 5 6:55 am, Peize. Weather by CustomWeather, © 2021

Note: Actual official high and low records may vary slightly from our data, if they occured in-between our weather recording intervals... More about our weather records

Peize Weather History for the Previous 24 Hours

Scroll right to see more
 ConditionsComfort  
Time TempWeatherWind HumidityBarometerVisibility
6:55 am
Thu, Aug 5
57 °FPassing clouds.3 mph94%29.83 "HgN/A
6:25 am54 °FSunny.3 mph94%29.83 "Hg10 mi
5:55 am52 °FClear.6 mph100%29.86 "Hg5 mi
5:25 am52 °FClear.2 mph94%29.86 "Hg6 mi
4:55 am52 °FClear.No wind100%29.86 "Hg10 mi
4:25 am54 °FClear.2 mph94%29.86 "Hg10 mi
3:55 am54 °FClear.3 mph94%29.86 "Hg10 mi
3:25 am55 °FClear.3 mph94%29.89 "Hg10 mi
2:55 am57 °FClear.3 mph88%29.89 "Hg10 mi
1:55 am55 °FClear.6 mph88%29.89 "Hg10 mi
1:25 am55 °FClear.6 mph88%29.92 "Hg10 mi
12:55 am55 °FClear.6 mph88%29.92 "Hg10 mi
12:25 am57 °FClear.7 mph88%29.92 "Hg10 mi
11:55 pm
Wed, Aug 4
59 °FClear.8 mph82%29.92 "Hg10 mi
11:25 pm57 °FClear.7 mph88%29.92 "Hg10 mi
10:55 pm59 °FClear.6 mph82%29.92 "Hg10 mi
10:25 pm59 °FClear.7 mph82%29.92 "Hg10 mi
9:55 pm61 °FClear.7 mph77%29.92 "Hg10 mi
9:25 pm61 °FClear.7 mph77%29.92 "Hg10 mi
8:55 pm64 °FPassing clouds.8 mph73%29.92 "HgN/A
8:25 pm64 °FPassing clouds.8 mph73%29.89 "HgN/A
7:55 pm66 °FPassing clouds.7 mph68%29.89 "HgN/A
7:25 pm68 °FPassing clouds.9 mph64%29.89 "HgN/A
6:55 pm68 °FPartly sunny.13 mph64%29.89 "HgN/A
6:25 pm70 °FPassing clouds.10 mph60%29.92 "HgN/A
5:55 pm70 °FBroken clouds.9 mph57%29.92 "HgN/A
5:25 pm70 °FPassing clouds.9 mph57%29.92 "HgN/A
4:55 pm68 °FPartly sunny.10 mph64%29.92 "HgN/A
4:25 pm70 °FPassing clouds.9 mph60%29.92 "HgN/A
3:55 pm70 °FScattered clouds.9 mph57%29.92 "HgN/A
3:25 pm70 °FPartly sunny.8 mph57%29.92 "HgN/A
2:55 pm70 °FPassing clouds.8 mph60%29.95 "HgN/A
2:25 pm68 °FPartly sunny.9 mph60%29.95 "HgN/A
1:55 pm68 °FScattered clouds.8 mph60%29.95 "HgN/A
1:25 pm68 °FPassing clouds.7 mph60%29.95 "HgN/A
12:55 pm68 °FPassing clouds.7 mph60%29.95 "HgN/A
12:25 pm68 °FPartly sunny.8 mph64%29.95 "HgN/A
11:55 am66 °FPassing clouds.8 mph68%29.95 "HgN/A
11:25 am66 °FClear.7 mph68%29.95 "HgN/A
10:55 am64 °FPassing clouds.8 mph73%29.98 "HgN/A
10:25 am64 °FMore clouds than sun.6 mph73%29.98 "HgN/A
9:55 am63 °FBroken clouds.8 mph83%29.98 "HgN/A
9:25 am61 °FOvercast.7 mph83%29.98 "HgN/A
8:55 am61 °FOvercast.7 mph77%29.98 "HgN/A
8:25 am59 °FOvercast.6 mph82%29.95 "HgN/A
Weather by CustomWeather, © 2021

See weather overview